Virtual United States Air Force

 METAR AND TAF INFORMATION
METAR FOR ETAD
ADDS - METARS form results

(2024 UTC 23 February 2020)
Data provider http://aviationweather.gov/metar/data/
 
METAR text: ETAD 232008Z AUTO 28015G21KT 9999 -RA FEW015 SCT022 BKN029 OVC034 09/07 A3011 RMK AO2 RAE04RAB08 CIG 027 RWY05 SLP194 $
Conditions at: ETAD (SPANGDAHLEM (USA, DE) observed 2008 UTC 23 February 2020
Temperature: 9.0°C (48°F)
Dewpoint: 7.0°C (45°F) [RH = 87%]
Pressure (altimeter): 30.11 inches Hg (1019.7 mb)
[Sea-level pressure: 1019.4 mb]
Winds: from the W (280 degrees) at 17 MPH (15 knots; 7.7 m/s)
gusting to 24 MPH (21 knots; 10.8 m/s)
Visibility: 6 or more miles (10+ km)
Ceiling: 2900 feet AGL
Clouds: few clouds at 1500 feet AGL
scattered clouds at 2200 feet AGL
broken clouds at 2900 feet AGL
overcast cloud deck at 3400 feet AGL
Weather: -RA  (light rain)
SOME DATA ABOVE MAY BE INACCURATE!!!
"$" is an indication the sensor requires maintenance

METAR text: ETAD 232004Z AUTO 28015G20KT 9999 FEW003 FEW015 SCT022 BKN027 OVC032 09/07 A3011 RMK AO2 RAE04 CIG 017V027 CIG 017 RWY05 SLP194 $
Conditions at: ETAD (SPANGDAHLEM (USA, DE) observed 2004 UTC 23 February 2020
Temperature: 9.0°C (48°F)
Dewpoint: 7.0°C (45°F) [RH = 87%]
Pressure (altimeter): 30.11 inches Hg (1019.7 mb)
[Sea-level pressure: 1019.4 mb]
Winds: from the W (280 degrees) at 17 MPH (15 knots; 7.7 m/s)
gusting to 23 MPH (20 knots; 10.3 m/s)
Visibility: 6 or more miles (10+ km)
Ceiling: 2700 feet AGL
Clouds: few clouds at 300 feet AGL
few clouds at 1500 feet AGL
scattered clouds at 2200 feet AGL
broken clouds at 2700 feet AGL
Weather:
SOME DATA ABOVE MAY BE INACCURATE!!!
"$" is an indication the sensor requires maintenance

METAR text: ETAD 231956Z AUTO 28013G22KT 9999 -RA FEW003 SCT011 BKN017 OVC025 09/07 A3010 RMK AO2 RAE15RAB30 CIG 010V018 SLP190 P0003 T00880072
Conditions at: ETAD (SPANGDAHLEM (USA, DE) observed 1956 UTC 23 February 2020
Temperature: 8.8°C (48°F)
Dewpoint: 7.2°C (45°F) [RH = 90%]
Pressure (altimeter): 30.10 inches Hg (1019.4 mb)
[Sea-level pressure: 1019.0 mb]
Winds: from the W (280 degrees) at 15 MPH (13 knots; 6.7 m/s)
gusting to 25 MPH (22 knots; 11.3 m/s)
Visibility: 6 or more miles (10+ km)
Ceiling: 1700 feet AGL
Clouds: few clouds at 300 feet AGL
scattered clouds at 1100 feet AGL
broken clouds at 1700 feet AGL
overcast cloud deck at 2500 feet AGL
Weather: -RA  (light rain)

METAR text: ETAD 231954Z AUTO 28014G22KT 9999 -RA FEW003 SCT011 BKN017 OVC023 09/07 A3010 RMK AO2 RAE15RAB30 CIG 010V018 SLP190 $
Conditions at: ETAD (SPANGDAHLEM (USA, DE) observed 1954 UTC 23 February 2020
Temperature: 9.0°C (48°F)
Dewpoint: 7.0°C (45°F) [RH = 87%]
Pressure (altimeter): 30.10 inches Hg (1019.4 mb)
[Sea-level pressure: 1019.0 mb]
Winds: from the W (280 degrees) at 16 MPH (14 knots; 7.2 m/s)
gusting to 25 MPH (22 knots; 11.3 m/s)
Visibility: 6 or more miles (10+ km)
Ceiling: 1700 feet AGL
Clouds: few clouds at 300 feet AGL
scattered clouds at 1100 feet AGL
broken clouds at 1700 feet AGL
overcast cloud deck at 2300 feet AGL
Weather: -RA  (light rain)
SOME DATA ABOVE MAY BE INACCURATE!!!
"$" is an indication the sensor requires maintenance

METAR text: ETAD 231939Z AUTO 29013G21KT 9999 RA SCT003 BKN010 OVC018 10/09 A3009 RMK AO2 WSHFT 26 RAE15RAB30 CIG 010V018 BKN V SCT SLP185 $
Conditions at: ETAD (SPANGDAHLEM (USA, DE) observed 1939 UTC 23 February 2020
Temperature: 10.0°C (50°F)
Dewpoint: 9.0°C (48°F) [RH = 93%]
Pressure (altimeter): 30.09 inches Hg (1019.0 mb)
[Sea-level pressure: 1018.5 mb]
Winds: from the WNW (290 degrees) at 15 MPH (13 knots; 6.7 m/s)
gusting to 24 MPH (21 knots; 10.8 m/s)
Visibility: 6 or more miles (10+ km)
Ceiling: 1000 feet AGL
Clouds: scattered clouds at 300 feet AGL
broken clouds at 1000 feet AGL
overcast cloud deck at 1800 feet AGL
Weather: RA  (moderate rain)
SOME DATA ABOVE MAY BE INACCURATE!!!
"$" is an indication the sensor requires maintenance

METAR text: ETAD 231930Z AUTO 26014G23KT 9999 -RA FEW010 OVC018 10/09 A3008 RMK AO2 RAE15RAB30 SLP182 $
Conditions at: ETAD (SPANGDAHLEM (USA, DE) observed 1930 UTC 23 February 2020
Temperature: 10.0°C (50°F)
Dewpoint: 9.0°C (48°F) [RH = 93%]
Pressure (altimeter): 30.08 inches Hg (1018.7 mb)
[Sea-level pressure: 1018.2 mb]
Winds: from the W (260 degrees) at 16 MPH (14 knots; 7.2 m/s)
gusting to 26 MPH (23 knots; 11.8 m/s)
Visibility: 6 or more miles (10+ km)
Ceiling: 1800 feet AGL
Clouds: few clouds at 1000 feet AGL
overcast cloud deck at 1800 feet AGL
Weather: -RA  (light rain)
SOME DATA ABOVE MAY BE INACCURATE!!!
"$" is an indication the sensor requires maintenance

METAR text: ETAD 231928Z AUTO 25015G23KT 9999 FEW010 OVC018 10/09 A3008 RMK AO2 RAE15 SLP182 $
Conditions at: ETAD (SPANGDAHLEM (USA, DE) observed 1928 UTC 23 February 2020
Temperature: 10.0°C (50°F)
Dewpoint: 9.0°C (48°F) [RH = 93%]
Pressure (altimeter): 30.08 inches Hg (1018.7 mb)
[Sea-level pressure: 1018.2 mb]
Winds: from the WSW (250 degrees) at 17 MPH (15 knots; 7.7 m/s)
gusting to 26 MPH (23 knots; 11.8 m/s)
Visibility: 6 or more miles (10+ km)
Ceiling: 1800 feet AGL
Clouds: few clouds at 1000 feet AGL
overcast cloud deck at 1800 feet AGL
Weather:
SOME DATA ABOVE MAY BE INACCURATE!!!
"$" is an indication the sensor requires maintenance

 AIRPORT MAP

 RUNWAY INFORMATION
Runway 05 Runway length 10007 ft Runway width 148 ft
Runway elevation 1128 ft Runway displaced threshold 0 ft Runway heading 45
Runway 23 Runway length 10007 ft Runway width 148 ft
Runway elevation 1197 ft Runway displaced threshold 0 ft Runway heading 225

 AIRPORT FREQUENCIES
Type A/G Name SOF Frequency 141.775 MHZ
Type ATIS Name ATIS Frequency 143.425 MHZ
Type DEP Name LIPPE RADA Frequency 314.6 MHZ
Type DIR Name RHEIN RADA Frequency 387.15 MHZ
Type GCA Name GCA Frequency 129.475 MHZ
Type GCCD Name CLNC DEL Frequency 308.85 MHZ
Type GND Name GND Frequency 138.8 MHZ
Type OPS Name AMC AIRLIF Frequency 131.975 MHZ
Type PMSV Name PMSV METRO Frequency 284.425 MHZ
Type POST Name COMD POST Frequency 258.7 MHZ
Type PTD Name PTD Frequency 138.4 MHZ
Type RDR Name LANGEN RAD Frequency 125.6 MHZ
Type TWR Name TWR Frequency 122.2 MHZ

 AIRPORT NEAR NAVIGATION AIDS


Neither the Department of the Air Force, nor any other component of the Department of Defense or Federal Government has approved, endorsed, or authorized this promotion, activity, or organization. Virtual United States Air Force organization is in no way affiliated with the Department of Defense, Department of the Air Force, or any other federal or government entity. Virtual United States Air Force is a group of flight simulation enthusiasts with the common interest of promoting enjoyment and cameraderie through the simulation of military operations and procedures utilizing several flight simulation platforms.

Copyright © vUSAF, LLC // 2018 All Rights Reserved